Terminal Aerodrome Forecast
Issued by NWS Jacksonville, FL

Home | Current Version | Previous Version | Text Only | Print | Product List | Glossary On
Versions: 1 2 3 4 5 6 7 8 9 10 11 12 13
483
FTUS42 KJAX 250535
TAFSSI
TAF
KSSI 250535Z 2506/2606 23007KT P6SM FEW030 SCT250
     FM251800 17010KT P6SM VCTS SCT040CB BKN200
     FM252200 VRB06KT 5SM -TSRA SCT025 BKN035CB PROB30 2523/2603
      VRB20G30KT 1SM +TSRA BKN015CB=

USA.gov is the U.S. government's official web portal to all federal, state and local government web resources and services.